Time;durP1;ratioP1;P1;durP2;ratioP2;P2;SDS_P1;SDS_P2;PMS_P1;PMS_P2;Temp;Humidity;BMP_temperature;BMP_pressure;BME280_temperature;BME280_humidity;BME280_pressure;Samples;Min_cycle;Max_cycle;Signal;HPM_P1;HPM_P2
2022/08/04 00:00:38;;;;;;;11.52;5.15;;;;;;;25.39;58.65;101151.38;5035890;28;20041;-63
2022/08/04 00:03:23;;;;;;;9.52;4.93;;;;;;;25.44;57.76;101142.63;5050930;28;20372;-63
2022/08/04 00:06:07;;;;;;;8.70;5.25;;;;;;;25.37;58.17;101150.06;5052420;28;20036;-63
2022/08/04 00:08:36;;;;;;;15.90;5.18;;;;;;;25.32;58.09;101156.78;5050045;28;20163;-63
2022/08/04 00:11:03;;;;;;;9.82;4.95;;;;;;;25.27;58.41;101156.13;5049945;28;20112;-63
2022/08/04 00:13:38;;;;;;;7.82;5.05;;;;;;;25.26;58.10;101146.78;5051184;28;20117;-63
2022/08/04 00:16:06;;;;;;;9.68;5.53;;;;;;;25.21;58.28;101149.84;5051097;28;20036;-63
2022/08/04 00:18:44;;;;;;;11.27;5.53;;;;;;;25.18;58.93;101148.50;5050869;28;20430;-63
2022/08/04 00:21:12;;;;;;;15.70;5.07;;;;;;;25.17;58.92;101141.19;5050356;28;20065;-63
2022/08/04 00:23:41;;;;;;;11.68;5.38;;;;;;;25.18;59.04;101145.66;5051736;28;20028;-63
2022/08/04 00:26:08;;;;;;;8.00;4.65;;;;;;;25.16;58.55;101133.00;5050995;28;20051;-63
2022/08/04 00:28:36;;;;;;;9.30;4.97;;;;;;;25.15;58.54;101137.88;5049676;28;20040;-63
2022/08/04 00:31:01;;;;;;;12.13;5.40;;;;;;;25.11;58.55;101133.19;5051987;28;20037;-63
2022/08/04 00:33:27;;;;;;;8.25;5.03;;;;;;;25.13;58.85;101133.69;5050953;28;20091;-63
2022/08/04 00:35:53;;;;;;;11.85;4.90;;;;;;;25.13;58.42;101137.38;5049276;28;20369;-63
2022/08/04 00:38:18;;;;;;;8.10;5.10;;;;;;;25.08;58.96;101119.69;5051066;28;20116;-63
2022/08/04 00:41:06;;;;;;;10.68;4.85;;;;;;;25.12;58.53;101130.03;5054177;28;20084;-63
2022/08/04 00:43:44;;;;;;;10.52;4.90;;;;;;;25.13;58.14;101128.03;5070492;28;20035;-63
2022/08/04 00:46:39;;;;;;;10.25;4.47;;;;;;;25.10;57.98;101121.00;5057703;28;20032;-63
2022/08/04 00:49:17;;;;;;;8.48;4.63;;;;;;;25.05;58.11;101118.34;5052767;28;20039;-63
2022/08/04 00:52:09;;;;;;;10.77;4.70;;;;;;;25.04;57.77;101119.53;5052257;28;20479;-63
2022/08/04 00:55:11;;;;;;;7.95;4.50;;;;;;;25.08;57.60;101119.69;5053972;28;20032;-63
2022/08/04 00:57:51;;;;;;;9.98;4.32;;;;;;;25.07;57.35;101118.81;5052303;28;20055;-63
2022/08/04 01:00:16;;;;;;;10.15;4.57;;;;;;;24.96;57.62;101118.41;5052993;28;20083;-63
2022/08/04 01:03:06;;;;;;;10.73;3.88;;;;;;;24.97;57.76;101119.25;5053153;28;20064;-63
2022/08/04 01:05:53;;;;;;;7.97;3.75;;;;;;;24.98;57.41;101118.06;5052986;28;20035;-63
2022/08/04 01:08:42;;;;;;;7.25;3.92;;;;;;;25.00;57.66;101112.88;5054093;28;20060;-63
2022/08/04 01:11:20;;;;;;;9.13;3.80;;;;;;;24.93;57.35;101110.56;5051730;28;20037;-63
2022/08/04 01:13:58;;;;;;;8.88;3.92;;;;;;;24.98;57.63;101109.53;5052203;28;20469;-64
2022/08/04 01:16:25;;;;;;;11.00;4.38;;;;;;;24.94;57.66;101100.03;5042111;28;20472;-64
2022/08/04 01:18:58;;;;;;;6.57;3.47;;;;;;;24.92;57.63;101093.91;5052744;28;20024;-63
2022/08/04 01:21:40;;;;;;;13.95;4.28;;;;;;;24.91;57.50;101092.22;5052575;28;20499;-63
2022/08/04 01:24:50;;;;;;;6.60;3.58;;;;;;;24.99;57.34;101099.84;5054801;28;20166;-63
2022/08/04 01:27:41;;;;;;;6.47;3.67;;;;;;;24.89;57.46;101095.41;5053740;28;20510;-63
2022/08/04 01:30:06;;;;;;;9.63;3.92;;;;;;;24.85;57.41;101088.75;5051976;28;20056;-64
2022/08/04 01:32:31;;;;;;;7.32;3.78;;;;;;;24.83;56.88;101085.41;5052976;28;20056;-63
2022/08/04 01:35:07;;;;;;;9.83;3.67;;;;;;;24.88;56.63;101081.56;5054436;28;20037;-63
2022/08/04 01:37:54;;;;;;;9.52;3.47;;;;;;;24.93;56.71;101081.34;5054466;28;20402;-63
2022/08/04 01:40:20;;;;;;;9.43;3.70;;;;;;;24.90;56.76;101084.88;5052569;28;20116;-63
2022/08/04 01:42:48;;;;;;;8.63;3.78;;;;;;;24.89;56.94;101078.38;5054139;28;20107;-63
2022/08/04 01:45:14;;;;;;;8.27;3.55;;;;;;;24.88;56.38;101084.41;5053662;28;20039;-63
2022/08/04 01:47:49;;;;;;;11.20;3.72;;;;;;;24.91;55.85;101075.19;5054056;28;20025;-63
2022/08/04 01:50:14;;;;;;;9.30;3.60;;;;;;;24.90;56.23;101077.19;5053364;28;20092;-64
2022/08/04 01:52:41;;;;;;;9.23;3.60;;;;;;;24.89;55.66;101077.53;5052512;28;20259;-64
2022/08/04 01:55:09;;;;;;;7.07;3.60;;;;;;;24.89;55.69;101077.53;5052384;28;20052;-64
2022/08/04 01:57:46;;;;;;;7.25;3.10;;;;;;;24.92;55.71;101074.03;5054245;28;20025;-64
2022/08/04 02:00:14;;;;;;;8.77;3.45;;;;;;;24.87;55.75;101068.53;5051341;28;20059;-64
2022/08/04 02:02:40;;;;;;;10.48;3.28;;;;;;;24.90;55.52;101065.00;5052993;28;20125;-63
2022/08/04 02:05:10;;;;;;;8.75;3.47;;;;;;;24.89;56.24;101071.88;5054013;28;20052;-64
2022/08/04 02:08:03;;;;;;;11.32;3.42;;;;;;;24.89;55.19;101066.19;5050502;28;20059;-63
2022/08/04 02:11:09;;;;;;;8.63;3.25;;;;;;;24.93;55.32;101072.84;5052613;28;20476;-63
2022/08/04 02:14:02;;;;;;;11.70;3.25;;;;;;;24.87;55.35;101062.84;5016406;28;20495;-64
2022/08/04 02:16:37;;;;;;;6.05;2.72;;;;;;;24.83;55.21;101057.03;5053519;28;20052;-64
2022/08/04 02:19:27;;;;;;;10.38;3.28;;;;;;;24.85;55.13;101054.69;5053158;28;20543;-63
2022/08/04 02:21:56;;;;;;;9.60;2.83;;;;;;;24.85;55.07;101060.38;5052033;28;20084;-63
2022/08/04 02:24:26;;;;;;;8.98;3.00;;;;;;;24.84;54.23;101046.53;5049327;28;20376;-64
2022/08/04 02:26:55;;;;;;;13.35;2.88;;;;;;;24.84;54.49;101052.19;5054156;28;20033;-64
2022/08/04 02:29:33;;;;;;;8.93;2.50;;;;;;;24.85;54.28;101056.69;5052447;28;20464;-63
2022/08/04 02:32:01;;;;;;;8.98;3.28;;;;;;;24.84;53.93;101049.38;5053818;28;20083;-64
2022/08/04 02:35:04;;;;;;;11.15;2.90;;;;;;;24.89;54.40;101041.47;5051816;28;20025;-64
2022/08/04 02:37:31;;;;;;;9.57;2.65;;;;;;;24.85;53.47;101042.50;5051372;28;20083;-64
2022/08/04 02:40:00;;;;;;;9.27;2.65;;;;;;;24.84;53.58;101046.53;5053311;28;20060;-64
2022/08/04 02:42:27;;;;;;;7.85;2.78;;;;;;;24.83;54.26;101040.00;5056536;28;20024;-64
2022/08/04 02:44:56;;;;;;;11.23;2.75;;;;;;;24.82;53.35;101038.34;5047574;28;20029;-64
2022/08/04 02:47:24;;;;;;;11.95;2.85;;;;;;;24.81;54.06;101035.84;5052561;28;20036;-64
2022/08/04 02:49:50;;;;;;;8.65;2.38;;;;;;;24.81;53.43;101033.00;5049088;28;20063;-64
2022/08/04 02:52:18;;;;;;;12.07;3.03;;;;;;;24.79;53.14;101033.34;5053107;28;20444;-63
2022/08/04 02:54:45;;;;;;;7.13;2.58;;;;;;;24.80;53.57;101028.50;5052776;28;20025;-63
2022/08/04 02:57:12;;;;;;;6.68;2.35;;;;;;;24.79;53.22;101027.66;5052699;28;20025;-64
2022/08/04 02:59:59;;;;;;;8.85;2.28;;;;;;;24.82;53.60;101026.97;5048854;28;20025;-63
2022/08/04 03:02:41;;;;;;;6.25;2.40;;;;;;;24.81;53.24;101024.50;5050865;28;20100;-63
2022/08/04 03:05:15;;;;;;;12.82;2.78;;;;;;;24.83;52.98;101019.28;5050676;28;20408;-63
2022/08/04 03:08:26;;;;;;;10.43;2.60;;;;;;;24.86;53.29;101010.09;5053076;28;20055;-63
2022/08/04 03:11:21;;;;;;;6.90;2.67;;;;;;;24.83;53.05;101022.13;5050443;28;20037;-63
2022/08/04 03:13:58;;;;;;;6.30;2.80;;;;;;;24.79;53.33;101019.16;5051989;28;20024;-63
2022/08/04 03:16:51;;;;;;;9.13;2.70;;;;;;;24.82;53.24;101017.63;5050539;28;20021;-63
2022/08/04 03:20:10;;;;;;;9.90;2.15;;;;;;;24.84;53.40;101024.63;5052492;28;20035;-64
2022/08/04 03:22:52;;;;;;;11.68;2.80;;;;;;;24.79;53.25;101049.53;5012521;28;20048;-63
2022/08/04 03:25:47;;;;;;;7.18;2.40;;;;;;;24.79;52.99;101049.53;5050077;28;20028;-64
2022/08/04 03:28:46;;;;;;;8.60;2.30;;;;;;;24.76;52.98;101061.59;5050761;28;20055;-64
2022/08/04 03:31:41;;;;;;;9.40;3.00;;;;;;;24.67;53.50;101042.59;5050479;28;20036;-64
2022/08/04 03:34:43;;;;;;;9.02;2.92;;;;;;;24.67;53.48;101034.09;5051558;28;20037;-63
2022/08/04 03:37:46;;;;;;;9.35;3.03;;;;;;;24.65;53.87;101029.97;5050992;28;20029;-64
2022/08/04 03:40:29;;;;;;;;;;;;;;;24.80;53.07;101039.84;5041982;28;20407;-64
2022/08/04 03:43:36;;;;;;;9.48;2.70;;;;;;;24.62;54.14;101033.47;5051577;28;19916;-63
2022/08/04 03:46:47;;;;;;;11.95;3.00;;;;;;;24.54;53.90;101032.34;5036611;28;20040;-64
2022/08/04 03:49:31;;;;;;;12.98;3.15;;;;;;;24.51;54.46;101040.72;5020277;28;20483;-63
2022/08/04 03:55:07;;;;;;;10.73;3.33;;;;;;;24.39;54.53;101055.63;5040648;28;20079;-63
2022/08/04 03:57:54;;;;;;;10.98;3.33;;;;;;;24.41;54.50;101067.50;5051483;28;20065;-64
2022/08/04 04:00:29;;;;;;;10.18;3.80;;;;;;;24.30;55.02;101061.31;5049585;28;20060;-63
2022/08/04 04:03:13;;;;;;;8.80;3.30;;;;;;;24.35;54.80;101068.81;5046029;28;20025;-63
2022/08/04 04:06:16;;;;;;;12.70;3.88;;;;;;;24.29;54.78;101070.16;5051182;28;20021;-63
2022/08/04 04:09:09;;;;;;;10.23;3.95;;;;;;;24.25;55.08;101067.19;5049609;28;20051;-63
2022/08/04 04:11:46;;;;;;;8.80;3.95;;;;;;;24.17;55.55;101071.75;5045243;28;20094;-63
2022/08/04 04:14:22;;;;;;;11.20;3.90;;;;;;;24.15;55.85;101070.41;5048026;28;20049;-63
2022/08/04 04:16:48;;;;;;;9.63;3.53;;;;;;;24.15;55.75;101061.91;5050815;28;20032;-63
2022/08/04 04:19:47;;;;;;;10.15;3.85;;;;;;;24.20;55.35;101062.53;5054914;28;20039;-63
2022/08/04 04:22:30;;;;;;;8.20;3.78;;;;;;;24.14;56.28;101063.91;5055489;28;20025;-63
2022/08/04 04:25:26;;;;;;;7.88;3.70;;;;;;;24.16;55.77;101063.56;5056288;28;20031;-63
2022/08/04 04:28:21;;;;;;;11.52;4.03;;;;;;;24.18;55.99;101064.06;5054854;28;20560;-63
2022/08/04 04:31:24;;;;;;;9.23;4.18;;;;;;;24.16;56.07;101070.06;5051922;28;20036;-63
2022/08/04 04:33:58;;;;;;;13.07;4.10;;;;;;;24.06;56.61;101067.59;5052259;28;20121;-63
2022/08/04 04:36:38;;;;;;;8.85;3.58;;;;;;;24.08;56.74;101067.25;5054696;28;20100;-63
2022/08/04 04:39:47;;;;;;;13.88;3.80;;;;;;;24.11;56.44;101069.41;5053350;28;20048;-63
2022/08/04 04:42:51;;;;;;;10.07;3.65;;;;;;;24.11;56.62;101070.25;5054283;28;20028;-64
2022/08/04 04:45:16;;;;;;;13.55;4.25;;;;;;;24.03;57.11;101058.94;5048153;28;20115;-62
2022/08/04 04:47:53;;;;;;;9.05;3.70;;;;;;;24.03;57.06;101065.44;5050034;28;20108;-63
2022/08/04 04:50:59;;;;;;;9.93;3.88;;;;;;;24.09;56.76;101064.09;5054980;28;20036;-64
2022/08/04 04:53:46;;;;;;;11.15;4.40;;;;;;;24.05;57.23;101065.94;5052787;28;20119;-64
2022/08/04 04:56:45;;;;;;;7.05;4.28;;;;;;;24.11;56.80;101069.41;5050662;28;20044;-63
2022/08/04 04:59:15;;;;;;;9.98;4.35;;;;;;;24.04;58.19;101069.94;5042447;28;20028;-63
2022/08/04 05:02:05;;;;;;;8.32;4.00;;;;;;;24.09;57.59;101078.28;5053272;28;20033;-63
2022/08/04 05:04:51;;;;;;;11.15;4.70;;;;;;;24.09;57.46;101086.78;5047693;28;20033;-63
2022/08/04 05:08:04;;;;;;;13.35;4.50;;;;;;;24.11;57.24;101083.59;5048872;28;20040;-63
2022/08/04 05:10:38;;;;;;;12.05;4.40;;;;;;;24.09;57.64;101074.59;5008866;28;20094;-63
2022/08/04 05:13:22;;;;;;;8.60;4.18;;;;;;;24.06;58.27;101072.44;5051869;28;20021;-63
2022/08/04 05:15:52;;;;;;;9.93;4.25;;;;;;;24.03;57.62;101068.28;5053992;28;20040;-64
2022/08/04 05:18:23;;;;;;;12.15;4.40;;;;;;;24.06;58.63;101083.78;5052896;28;20021;-64
2022/08/04 05:20:59;;;;;;;10.98;4.80;;;;;;;24.08;57.80;101082.25;5053495;28;20380;-63
2022/08/04 05:23:28;;;;;;;11.68;3.80;;;;;;;24.07;58.61;101077.78;5052064;28;20507;-64
2022/08/04 05:26:05;;;;;;;12.07;4.50;;;;;;;24.07;58.09;101080.59;5053239;28;20021;-64
2022/08/04 05:28:38;;;;;;;12.48;4.85;;;;;;;24.07;58.44;101088.28;5051939;28;20037;-64
2022/08/04 05:31:18;;;;;;;11.10;4.55;;;;;;;24.09;58.77;101071.75;5051397;28;20104;-62
2022/08/04 05:33:57;;;;;;;8.95;4.38;;;;;;;24.13;58.67;101078.41;5050120;28;20043;-62
2022/08/04 05:36:33;;;;;;;11.55;4.88;;;;;;;24.10;58.65;101074.25;5053154;28;20037;-62
2022/08/04 05:39:01;;;;;;;8.35;4.25;;;;;;;24.13;59.03;101067.06;5048117;28;20059;-63
2022/08/04 05:41:28;;;;;;;10.07;3.78;;;;;;;24.13;58.88;101067.91;5049538;28;20035;-62
2022/08/04 05:43:55;;;;;;;12.65;4.57;;;;;;;24.16;59.21;101061.53;5047255;28;20044;-62
2022/08/04 05:46:21;;;;;;;20.52;4.70;;;;;;;24.17;59.44;101056.69;5052550;28;20047;-64
2022/08/04 05:48:48;;;;;;;14.93;4.95;;;;;;;24.18;59.04;101059.22;5053245;28;20108;-62
2022/08/04 05:51:14;;;;;;;10.70;4.53;;;;;;;24.21;59.50;101052.03;5051231;28;20070;-62
2022/08/04 05:53:43;;;;;;;14.25;5.75;;;;;;;24.17;59.30;101057.56;5052953;28;20529;-63
2022/08/04 05:56:10;;;;;;;11.15;4.78;;;;;;;24.21;58.72;101066.22;5051525;28;20044;-63
2022/08/04 05:58:37;;;;;;;12.98;5.50;;;;;;;24.19;58.88;101060.03;5050596;28;20123;-63
2022/08/04 06:01:04;;;;;;;11.25;5.82;;;;;;;24.20;59.56;101062.53;5052131;28;20052;-62
2022/08/04 06:03:33;;;;;;;14.02;4.80;;;;;;;24.22;59.34;101073.56;5051344;28;20024;-63
2022/08/04 06:05:59;;;;;;;11.20;4.78;;;;;;;24.25;59.64;101076.53;5050572;28;20025;-64
2022/08/04 06:08:25;;;;;;;11.00;5.30;;;;;;;24.25;59.37;101070.88;5049793;28;20029;-64
2022/08/04 06:10:55;;;;;;;19.50;6.53;;;;;;;24.20;59.90;101073.88;5050791;28;20036;-64
2022/08/04 06:13:31;;;;;;;27.92;6.57;;;;;;;24.20;59.71;101073.88;5050783;28;20028;-64
2022/08/04 06:16:00;;;;;;;19.95;6.85;;;;;;;24.16;59.49;101078.56;5052662;28;20495;-64
2022/08/04 06:18:28;;;;;;;18.50;6.15;;;;;;;24.20;59.60;101073.88;5052725;28;20028;-64
2022/08/04 06:20:57;;;;;;;12.60;6.50;;;;;;;24.19;59.49;101071.38;5050263;28;20128;-64
2022/08/04 06:23:26;;;;;;;16.75;7.40;;;;;;;24.16;58.81;101078.56;5049869;28;20033;-64
2022/08/04 06:25:55;;;;;;;12.27;7.15;;;;;;;24.21;59.23;101075.56;5048863;28;20033;-63
2022/08/04 06:28:21;;;;;;;13.05;7.05;;;;;;;24.23;59.39;101073.19;5037675;28;20021;-63
2022/08/04 06:30:49;;;;;;;21.63;7.68;;;;;;;24.29;59.16;101078.66;5053240;28;20064;-63
2022/08/04 06:33:32;;;;;;;17.27;7.05;;;;;;;24.36;58.86;101078.97;5048811;28;20532;-64
2022/08/04 06:36:01;;;;;;;18.67;7.28;;;;;;;24.40;59.16;101082.81;5048575;28;20567;-65
2022/08/04 06:38:28;;;;;;;15.93;7.28;;;;;;;24.42;58.82;101080.50;5048564;28;20029;-64
2022/08/04 06:40:56;;;;;;;16.23;8.07;;;;;;;24.48;58.68;101093.31;5044413;28;20414;-63
2022/08/04 06:56:36;;;;;;;10.65;4.90;;;;;;;24.78;58.20;101082.78;4984849;28;20038;-68
2022/08/04 07:06:39;;;;;;;12.50;7.80;;;;;;;24.75;58.46;101089.16;5038043;28;20048;-68
2022/08/04 07:09:57;;;;;;;11.02;6.20;;;;;;;24.90;58.05;101099.06;4957297;28;20397;-69
2022/08/04 07:13:18;;;;;;;11.52;5.95;;;;;;;24.87;57.90;101085.56;5001442;28;20046;-67
2022/08/04 07:52:04;;;;;;;;;;;;;;;;;;;;;
2022/08/04 07:55:23;;;;;;;14.65;8.52;;;;;;;25.65;57.68;101104.84;4829983;29;20501;-70
2022/08/04 07:58:24;;;;;;;15.32;9.50;;;;;;;25.67;58.07;101113.84;4891183;29;20112;-69
2022/08/04 08:01:28;;;;;;;16.08;10.07;;;;;;;25.71;58.11;101104.28;4931722;29;20047;-67
2022/08/04 08:05:09;;;;;;;;;;;;;;;;;;;;;
2022/08/04 08:08:26;;;;;;;;;;;;;;;;;;;;;
2022/08/04 08:15:46;;;;;;;;;;;;;;;;;;;;;
2022/08/04 08:44:01;;;;;;;;;;;;;;;;;;;;;
2022/08/04 08:47:17;;;;;;;;;;;;;;;;;;;;;
2022/08/04 09:04:35;;;;;;;8.85;2.38;;;;;;;26.64;53.91;101170.19;5038581;28;20489;-67
2022/08/04 09:10:52;;;;;;;9.25;2.72;;;;;;;26.63;53.36;101173.41;5033731;28;20109;-69
2022/08/04 09:14:15;;;;;;;;;;;;;;;;;;;;;
2022/08/04 09:21:09;;;;;;;;;;;;;;;;;;;;;
2022/08/04 09:24:16;;;;;;;6.90;2.65;;;;;;;26.61;53.29;101170.94;5001816;28;20480;-70
2022/08/04 09:27:36;;;;;;;7.78;2.55;;;;;;;26.61;52.67;101182.31;5033696;28;20065;-68
2022/08/04 09:34:01;;;;;;;10.15;2.47;;;;;;;26.58;52.84;101191.56;5002166;28;20037;-68
2022/08/04 09:37:15;;;;;;;;;;;;;;;;;;;;;
2022/08/04 09:40:21;;;;;;;9.82;2.20;;;;;;;26.51;52.15;101188.47;5030445;28;20053;-68
2022/08/04 09:46:50;;;;;;;7.97;2.30;;;;;;;26.40;50.97;101210.81;5042104;28;20037;-71
2022/08/04 09:49:55;;;;;;;6.50;1.95;;;;;;;26.40;50.91;101221.38;5065815;28;20043;-71
2022/08/04 09:52:46;;;;;;;9.55;2.03;;;;;;;26.40;51.08;101215.69;5046490;28;20070;-68
2022/08/04 09:55:49;;;;;;;6.85;2.17;;;;;;;26.36;50.97;101220.41;5047311;28;20068;-69
2022/08/04 09:58:47;;;;;;;;;;;;;;;;;;;;;
2022/08/04 10:02:00;;;;;;;8.45;2.25;;;;;;;26.28;51.50;101232.72;4985702;28;20033;-69
2022/08/04 10:08:51;;;;;;;9.32;2.05;;;;;;;26.23;52.24;101232.94;5025360;28;20396;-68
2022/08/04 10:22:23;;;;;;;11.73;2.88;;;;;;;26.00;54.00;101309.28;5039661;28;20068;-71
2022/08/04 10:29:31;;;;;;;15.00;3.08;;;;;;;25.89;55.27;101315.38;5034670;28;20067;-68
2022/08/04 10:39:18;;;;;;;10.63;3.40;;;;;;;25.63;58.30;101283.47;5034238;28;20513;-69
2022/08/04 10:42:44;;;;;;;11.77;3.42;;;;;;;25.60;59.60;101256.53;4977572;28;20452;-68
2022/08/04 10:45:46;;;;;;;12.52;3.42;;;;;;;25.45;61.47;101225.88;5030374;28;20045;-68
2022/08/04 10:55:19;;;;;;;13.18;3.33;;;;;;;25.44;60.98;101232.75;5047558;28;20392;-70
2022/08/04 10:58:26;;;;;;;;;;;;;;;;;;;;;
2022/08/04 11:05:45;;;;;;;;;;;;;;;;;;;;;
2022/08/04 11:08:43;;;;;;;10.95;4.32;;;;;;;25.56;63.08;101266.09;4996054;28;20041;-69
2022/08/04 11:15:34;;;;;;;;;;;;;;;;;;;;;
2022/08/04 11:18:32;;;;;;;9.27;3.60;;;;;;;25.44;63.43;101235.59;5025978;28;20094;-71
2022/08/04 11:22:04;;;;;;;8.23;3.75;;;;;;;25.44;61.97;101236.44;5048988;28;20431;-67
2022/08/04 11:29:04;;;;;;;;;;;;;;;;;;;;;
2022/08/04 11:32:23;;;;;;;8.65;4.00;;;;;;;25.56;62.70;101232.84;4887226;29;20048;-67
2022/08/04 11:39:05;;;;;;;10.00;4.53;;;;;;;25.84;62.42;101223.78;4902526;29;20046;-73
2022/08/04 11:45:36;;;;;;;7.95;3.22;;;;;;;26.07;60.77;101247.81;4965290;28;19925;-68
2022/08/04 11:55:43;;;;;;;;;;;;;;;;;;;;;
2022/08/04 12:02:15;;;;;;;7.93;2.88;;;;;;;26.21;58.43;101236.13;4950798;29;20035;-68
2022/08/04 12:05:35;;;;;;;6.68;2.90;;;;;;;26.26;58.61;101240.78;4902398;29;20476;-68
2022/08/04 12:08:53;;;;;;;4.50;2.60;;;;;;;26.41;59.08;101257.22;4938973;29;20162;-64
2022/08/04 12:22:32;;;;;;;;;;;;;;;;;;;;;
2022/08/04 12:36:24;;;;;;;7.30;2.10;;;;;;;26.30;56.97;101279.56;5031586;28;20033;-70
2022/08/04 12:40:00;;;;;;;;;;;;;;;;;;;;;
2022/08/04 12:43:19;;;;;;;6.90;2.20;;;;;;;26.19;57.15;101279.16;4950531;28;20043;-66
2022/08/04 12:46:43;;;;;;;7.32;2.30;;;;;;;26.19;56.58;101289.72;4963976;28;20051;-67
2022/08/04 12:53:48;;;;;;;6.28;2.30;;;;;;;26.13;56.32;101297.66;4945451;28;20332;-69
2022/08/04 13:07:00;;;;;;;4.50;2.67;;;;;;;26.24;56.05;101297.22;4903422;29;20152;-67
2022/08/04 13:10:05;;;;;;;4.63;2.25;;;;;;;26.26;55.63;101289.16;4952628;29;20047;-68
2022/08/04 13:13:06;;;;;;;5.05;2.03;;;;;;;26.24;55.43;101286.66;4953558;29;20035;-69
2022/08/04 13:23:10;;;;;;;6.68;2.42;;;;;;;26.44;55.14;101302.03;5052292;28;20044;-67
2022/08/04 13:29:31;;;;;;;7.88;2.55;;;;;;;26.53;54.38;101294.28;5036660;28;20110;-68
2022/08/04 13:32:55;;;;;;;4.63;1.85;;;;;;;26.55;54.51;101283.34;5031165;28;20546;-67
2022/08/04 13:40:02;;;;;;;3.15;2.40;;;;;;;26.70;53.72;101283.88;4989390;28;20068;-68
2022/08/04 13:47:12;;;;;;;6.00;2.40;;;;;;;26.83;54.22;101282.72;5012817;28;20048;-68
2022/08/04 13:50:34;;;;;;;10.20;3.22;;;;;;;26.86;54.11;101279.16;4971330;28;20039;-68
2022/08/04 14:04:37;;;;;;;3.53;2.47;;;;;;;27.03;53.79;101272.41;4970013;28;20386;-69
2022/08/04 14:15:07;;;;;;;6.63;2.92;;;;;;;27.02;52.84;101268.72;4979324;28;20040;-72
2022/08/04 14:28:35;;;;;;;6.38;3.00;;;;;;;27.05;52.79;101264.34;4943362;28;20051;-68
2022/08/04 14:34:56;;;;;;;;;;;;;;;;;;;;;
2022/08/04 14:37:57;;;;;;;12.85;2.88;;;;;;;27.11;53.22;101245.84;4961666;28;20046;-72
2022/08/04 14:55:44;;;;;;;8.32;3.10;;;;;;;27.33;52.46;101268.16;4817470;29;20046;-70
2022/08/04 14:58:55;;;;;;;7.57;3.22;;;;;;;27.32;52.21;101257.13;4875335;29;20627;-69
2022/08/04 15:05:33;;;;;;;5.20;2.88;;;;;;;27.32;51.54;101249.41;4912481;29;20296;-69
2022/08/04 15:12:04;;;;;;;7.18;2.90;;;;;;;27.29;51.49;101247.28;4959932;28;20058;-68
2022/08/04 15:28:58;;;;;;;5.78;2.60;;;;;;;27.26;51.21;101242.28;4936591;28;20046;-68
2022/08/04 15:32:38;;;;;;;7.57;2.30;;;;;;;27.27;51.40;101238.22;4940779;28;20202;-69
2022/08/04 15:35:47;;;;;;;;;;;;;;;;;;;;;
2022/08/04 15:39:14;;;;;;;;;;;;;;;;;;;;;
2022/08/04 15:42:25;;;;;;;6.25;2.55;;;;;;;27.35;50.53;101225.03;4924899;28;20035;-69
2022/08/04 15:55:22;;;;;;;;;;;;;;;;;;;;;
2022/08/04 16:02:58;;;;;;;5.07;2.47;;;;;;;27.28;49.02;101227.69;4988817;28;20041;-71
2022/08/04 16:05:48;;;;;;;4.93;2.22;;;;;;;27.29;48.94;101237.91;5003008;28;20111;-71
2022/08/04 16:19:53;;;;;;;;;;;;;;;;;;;;;
2022/08/04 16:23:03;;;;;;;;;;;;;;;27.29;49.74;101224.47;4930068;29;20442;-69
2022/08/04 16:30:02;;;;;;;5.72;2.47;;;;;;;27.19;48.90;101224.13;4952926;28;20050;-68
2022/08/04 16:36:42;;;;;;;6.32;3.00;;;;;;;27.14;48.79;101217.47;5027931;28;20068;-66
2022/08/04 16:39:59;;;;;;;5.30;2.65;;;;;;;27.10;49.52;101213.69;5017458;28;20051;-70
2022/08/04 16:49:21;;;;;;;6.13;2.80;;;;;;;27.06;49.61;101206.16;4956403;28;20104;-72
2022/08/04 16:52:41;;;;;;;5.95;2.70;;;;;;;27.08;49.56;101218.06;4964190;28;20042;-67
2022/08/04 16:55:35;;;;;;;6.75;2.95;;;;;;;27.02;49.72;101208.06;4915671;29;20111;-70
2022/08/04 17:02:14;;;;;;;;;;;;;;;;;;;;;
2022/08/04 17:12:04;;;;;;;;;;;;;;;;;;;;;
2022/08/04 17:39:04;;;;;;;5.43;2.03;;;;;;;26.60;48.50;101234.72;4934617;28;20039;-69
2022/08/04 17:42:08;;;;;;;5.82;2.10;;;;;;;26.58;48.41;101239.97;4972304;28;20038;-67
2022/08/04 17:45:12;;;;;;;7.35;1.90;;;;;;;26.55;48.36;101246.34;4986089;28;20066;-70
2022/08/04 17:51:28;;;;;;;6.45;1.92;;;;;;;26.40;47.79;101239.28;5045619;28;20037;-69
2022/08/04 18:01:52;;;;;;;;;;;;;;;;;;;;;
2022/08/04 18:15:53;;;;;;;;;;;;;;;;;;;;;
2022/08/04 18:18:48;;;;;;;4.88;1.73;;;;;;;26.06;47.60;101265.25;4963234;28;20050;-70
2022/08/04 18:40:29;;;;;;;;;;;;;;;;;;;;;
2022/08/04 18:50:48;;;;;;;;;;;;;;;;;;;;;
2022/08/04 18:53:48;;;;;;;3.30;1.65;;;;;;;25.71;46.42;101334.56;4741073;30;20446;-68
2022/08/04 18:57:16;;;;;;;6.43;1.58;;;;;;;25.63;47.46;101331.78;4767313;29;20424;-68
2022/08/04 19:21:21;;;;;;;;;;;;;;;;;;;;;
2022/08/04 19:43:52;;;;;;;;;;;;;;;;;;;;;
2022/08/04 20:05:38;;;;;;;6.95;2.28;;;;;;;24.95;52.74;101442.47;4792937;29;20383;-71
2022/08/04 20:09:07;;;;;;;3.78;2.08;;;;;;;24.89;53.32;101433.31;4836159;29;20038;-69
2022/08/04 20:16:22;;;;;;;5.60;2.33;;;;;;;24.74;52.79;101428.97;4796003;29;20047;-70
2022/08/04 20:38:25;;;;;;;;;;;;;;;;;;;;;
2022/08/04 21:06:45;;;;;;;5.55;3.13;;;;;;;24.29;58.48;101484.31;4901833;29;20226;-71
2022/08/04 21:21:32;;;;;;;5.50;2.95;;;;;;;24.16;58.60;101418.91;4840187;29;20045;-70
2022/08/04 21:27:41;;;;;;;7.53;3.25;;;;;;;24.03;60.22;101410.56;4819466;29;20047;-72
2022/08/04 21:34:21;;;;;;;;;;;;;;;;;;;;;
2022/08/04 21:37:56;;;;;;;;;;;;;;;;;;;;;
2022/08/04 21:48:24;;;;;;;4.15;3.22;;;;;;;23.91;58.41;101439.56;4896861;28;20106;-69
2022/08/04 21:51:54;;;;;;;;;;;;;;;;;;;;;
2022/08/04 22:20:03;;;;;;;6.22;2.92;;;;;;;23.59;58.12;101418.06;4890738;29;20075;-71
2022/08/04 22:22:52;;;;;;;3.72;2.25;;;;;;;23.52;58.83;101410.03;4889867;29;20567;-68
2022/08/04 22:25:17;;;;;;;5.65;3.00;;;;;;;23.44;58.85;101414.50;4947649;29;20593;-66
2022/08/04 22:28:02;;;;;;;5.05;2.80;;;;;;;23.48;58.96;101387.19;4991819;28;20068;-65
2022/08/04 22:30:32;;;;;;;4.10;3.00;;;;;;;23.46;58.72;101368.84;5042622;28;20021;-66
2022/08/04 22:32:57;;;;;;;4.88;2.67;;;;;;;23.46;58.93;101391.50;5049411;28;20399;-66
2022/08/04 22:35:23;;;;;;;6.00;2.90;;;;;;;23.44;58.79;101397.50;5040711;28;20492;-66
2022/08/04 22:37:48;;;;;;;4.80;2.97;;;;;;;23.36;58.69;101384.16;5033191;28;20037;-66
2022/08/04 22:40:13;;;;;;;4.80;2.45;;;;;;;23.43;59.13;101369.53;5033727;28;20053;-66
2022/08/04 22:42:39;;;;;;;5.50;3.22;;;;;;;23.25;59.30;101360.09;5040221;28;20039;-67
2022/08/04 22:45:06;;;;;;;5.20;2.90;;;;;;;23.30;59.12;101361.94;5052981;28;20120;-66
2022/08/04 22:47:33;;;;;;;5.10;3.05;;;;;;;23.20;58.98;101375.25;5052507;28;20041;-66
2022/08/04 22:49:58;;;;;;;4.28;3.30;;;;;;;23.18;58.78;101377.56;5053460;28;20033;-66
2022/08/04 22:52:23;;;;;;;5.28;2.83;;;;;;;23.24;59.41;101376.25;5052207;28;20117;-67
2022/08/04 22:54:49;;;;;;;5.90;2.75;;;;;;;23.23;58.82;101385.09;5053588;28;20040;-66
2022/08/04 22:57:14;;;;;;;4.40;3.25;;;;;;;23.20;58.54;101383.75;5045056;28;20495;-66
2022/08/04 22:59:39;;;;;;;3.63;3.13;;;;;;;23.15;58.44;101395.22;5052407;28;20040;-66
2022/08/04 23:02:05;;;;;;;7.00;3.17;;;;;;;23.13;58.38;101386.19;5050953;28;20094;-66
2022/08/04 23:04:32;;;;;;;7.82;3.75;;;;;;;23.10;59.06;101392.50;5052526;28;20043;-66
2022/08/04 23:06:57;;;;;;;4.50;3.28;;;;;;;23.12;59.37;101398.69;5051504;28;20025;-66
2022/08/04 23:09:24;;;;;;;6.43;3.00;;;;;;;23.16;59.00;101404.56;5053361;28;20112;-66
2022/08/04 23:11:49;;;;;;;6.85;3.10;;;;;;;23.08;59.86;101396.84;5050826;28;20029;-67
2022/08/04 23:14:14;;;;;;;6.40;3.28;;;;;;;23.10;59.69;101397.34;5051617;28;20029;-66
2022/08/04 23:16:41;;;;;;;7.47;3.53;;;;;;;23.07;59.38;101393.19;5052904;28;20035;-66
2022/08/04 23:19:07;;;;;;;4.55;3.00;;;;;;;23.12;59.38;101401.53;5052219;28;20040;-67
2022/08/04 23:21:32;;;;;;;5.95;3.67;;;;;;;22.99;59.52;101403.28;5050381;28;20029;-66
2022/08/04 23:23:57;;;;;;;4.03;3.42;;;;;;;23.02;59.90;101398.97;5052959;28;20052;-67
2022/08/04 23:26:23;;;;;;;6.43;3.15;;;;;;;22.92;60.15;101407.75;5052271;28;20040;-66
2022/08/04 23:28:48;;;;;;;5.72;3.15;;;;;;;23.06;59.85;101411.31;5052946;28;20116;-67
2022/08/04 23:31:13;;;;;;;5.13;3.90;;;;;;;22.98;60.03;101417.75;5039965;28;20033;-67